createdAt,value
2019-02-14T00:28:42.158Z,79.34
2019-02-14T00:28:42.728Z,79.53
2019-02-14T00:28:43.329Z,79.34
2019-02-14T00:28:43.929Z,79.53
2019-02-14T00:28:44.528Z,79.53
2019-02-14T00:28:45.131Z,79.53
2019-02-14T00:28:45.728Z,79.44
2019-02-14T00:28:46.328Z,79.53
2019-02-14T00:29:40.832Z,79.63
2019-02-14T00:29:41.406Z,79.72
2019-02-14T00:29:42.005Z,79.63
2019-02-14T00:29:42.606Z,79.82
2019-02-14T00:29:43.206Z,79.63
2019-02-14T00:29:43.809Z,80.00
2019-02-14T00:29:44.404Z,79.72
2019-02-14T00:29:45.004Z,79.82
2019-02-14T00:30:38.489Z,79.06
2019-02-14T00:30:39.058Z,79.34
2019-02-14T00:30:39.659Z,79.25
2019-02-14T00:30:40.258Z,79.25
2019-02-14T00:30:40.858Z,79.34
2019-02-14T00:30:41.458Z,78.96
2019-02-14T00:30:42.058Z,79.25
2019-02-14T00:30:42.659Z,79.25
2019-02-14T00:31:36.144Z,79.72
2019-02-14T00:31:36.709Z,79.72
2019-02-14T00:31:37.309Z,79.82
2019-02-14T00:31:37.909Z,79.06
2019-02-14T00:31:38.508Z,79.72
2019-02-14T00:31:39.107Z,79.06
2019-02-14T00:31:39.709Z,79.06
2019-02-14T00:31:40.308Z,79.25
2019-02-14T00:32:34.814Z,79.25
2019-02-14T00:32:35.389Z,79.06
2019-02-14T00:32:35.986Z,79.15
2019-02-14T00:32:36.586Z,79.15
2019-02-14T00:32:37.187Z,79.44
2019-02-14T00:32:37.785Z,79.15
2019-02-14T00:32:38.385Z,79.15
2019-02-14T00:32:38.986Z,79.25
2019-02-14T00:33:32.477Z,79.44
2019-02-14T00:33:33.038Z,79.63
2019-02-14T00:33:33.638Z,79.53
2019-02-14T00:33:34.241Z,79.53
2019-02-14T00:33:34.839Z,79.53
2019-02-14T00:33:35.438Z,79.53
2019-02-14T00:33:36.041Z,79.44
2019-02-14T00:33:36.638Z,79.44
2019-02-14T00:34:30.120Z,79.53
2019-02-14T00:34:30.693Z,79.53
2019-02-14T00:34:31.291Z,79.53
2019-02-14T00:34:31.892Z,79.44
2019-02-14T00:34:32.490Z,79.44
2019-02-14T00:34:33.094Z,79.44
2019-02-14T00:34:33.692Z,79.44
2019-02-14T00:34:34.290Z,79.53
2019-02-14T00:35:28.801Z,79.53
2019-02-14T00:35:29.367Z,79.53
2019-02-14T00:35:29.966Z,79.25
2019-02-14T00:35:30.566Z,79.53
2019-02-14T00:35:31.167Z,79.44
2019-02-14T00:35:31.766Z,79.44
2019-02-14T00:35:32.367Z,79.34
2019-02-14T00:35:32.966Z,79.53
2019-02-14T00:36:26.449Z,79.53
2019-02-14T00:36:27.019Z,79.44
2019-02-14T00:36:27.618Z,79.53
2019-02-14T00:36:28.219Z,79.63
2019-02-14T00:36:28.818Z,79.44
2019-02-14T00:36:29.418Z,79.53
2019-02-14T00:36:30.019Z,79.53
2019-02-14T00:36:30.618Z,79.53
2019-02-14T00:37:24.100Z,79.34
2019-02-14T00:37:24.672Z,79.34
2019-02-14T00:37:25.271Z,79.72
2019-02-14T00:37:25.874Z,79.34
2019-02-14T00:37:26.471Z,79.25
2019-02-14T00:37:27.071Z,79.25
2019-02-14T00:37:27.671Z,79.15
2019-02-14T00:37:28.272Z,78.96
2019-02-14T00:38:34.457Z,79.34
2019-02-14T00:38:35.023Z,79.15
2019-02-14T00:38:35.620Z,79.25
2019-02-14T00:38:36.222Z,79.53
2019-02-14T00:38:36.822Z,79.34
2019-02-14T00:38:37.423Z,79.19
2019-02-14T00:38:38.019Z,79.15
2019-02-14T00:38:38.619Z,79.15
2019-02-14T00:39:33.138Z,79.53
2019-02-14T00:39:33.695Z,79.53
2019-02-14T00:39:34.294Z,79.53
2019-02-14T00:39:34.895Z,79.53
2019-02-14T00:39:35.493Z,79.25
2019-02-14T00:39:36.095Z,79.44
2019-02-14T00:39:36.693Z,79.53
2019-02-14T00:39:37.297Z,79.44
2019-02-14T00:40:31.800Z,79.34
2019-02-14T00:40:32.374Z,79.25
2019-02-14T00:40:32.972Z,79.44
2019-02-14T00:40:33.572Z,79.53
2019-02-14T00:40:34.172Z,79.34
2019-02-14T00:40:34.773Z,79.25
2019-02-14T00:40:35.372Z,79.15
2019-02-14T00:40:35.981Z,79.34
2019-02-14T00:41:30.476Z,79.72
2019-02-14T00:41:31.049Z,79.25
2019-02-14T00:41:31.647Z,79.34
2019-02-14T00:41:32.251Z,79.15
2019-02-14T00:41:32.850Z,79.38
2019-02-14T00:41:33.446Z,79.34
2019-02-14T00:41:34.047Z,79.19
2019-02-14T00:41:34.648Z,79.19
2019-02-14T00:42:29.151Z,79.00
2019-02-14T00:42:29.724Z,79.00
2019-02-14T00:42:30.325Z,79.00
2019-02-14T00:42:30.923Z,79.00
2019-02-14T00:42:31.523Z,79.10
2019-02-14T00:42:32.125Z,79.10
2019-02-14T00:42:32.725Z,79.00
2019-02-14T00:42:33.322Z,79.19
2019-02-14T00:43:27.827Z,79.00
2019-02-14T00:43:28.399Z,79.00
2019-02-14T00:43:28.999Z,79.00
2019-02-14T00:43:29.600Z,78.91
2019-02-14T00:43:30.199Z,78.96
2019-02-14T00:43:30.799Z,79.00
2019-02-14T00:43:31.399Z,78.91
2019-02-14T00:43:32.000Z,79.00
2019-02-14T00:44:25.479Z,78.72
2019-02-14T00:44:26.052Z,79.19
2019-02-14T00:44:26.652Z,79.10
2019-02-14T00:44:27.252Z,79.10
2019-02-14T00:44:27.852Z,79.00
2019-02-14T00:44:28.452Z,79.00
2019-02-14T00:44:29.054Z,79.00
2019-02-14T00:44:29.651Z,79.00
2019-02-14T00:45:24.157Z,78.81
2019-02-14T00:45:24.729Z,78.72
2019-02-14T00:45:25.329Z,78.91
2019-02-14T00:45:25.926Z,78.62
2019-02-14T00:45:26.525Z,79.00
2019-02-14T00:45:27.126Z,79.19
2019-02-14T00:45:27.725Z,79.00
2019-02-14T00:45:28.326Z,78.62
2019-02-14T00:46:22.830Z,79.19
2019-02-14T00:46:23.408Z,79.00
2019-02-14T00:46:24.006Z,79.10
2019-02-14T00:46:24.604Z,79.00
2019-02-14T00:46:25.203Z,79.19
2019-02-14T00:46:25.803Z,79.10
2019-02-14T00:46:26.402Z,79.00
2019-02-14T00:46:27.002Z,79.19
2019-02-14T00:47:20.484Z,79.00
2019-02-14T00:47:21.059Z,79.19
2019-02-14T00:47:21.655Z,79.00
2019-02-14T00:47:22.254Z,79.00
2019-02-14T00:47:22.855Z,79.19
2019-02-14T00:47:23.454Z,79.28
2019-02-14T00:47:24.056Z,79.28
2019-02-14T00:47:24.654Z,79.00
2019-02-14T00:48:19.158Z,79.10
2019-02-14T00:48:19.731Z,79.00
2019-02-14T00:48:20.330Z,79.19
2019-02-14T00:48:20.975Z,79.10
2019-02-14T00:48:21.532Z,79.00
2019-02-14T00:48:22.132Z,79.10
2019-02-14T00:48:22.730Z,78.72
2019-02-14T00:48:23.330Z,79.19
2019-02-14T00:49:16.915Z,79.19
2019-02-14T00:49:17.489Z,79.19
2019-02-14T00:49:18.087Z,79.00
2019-02-14T00:49:18.685Z,79.19
2019-02-14T00:49:19.285Z,78.91
2019-02-14T00:49:19.885Z,79.19
2019-02-14T00:49:20.489Z,79.10
2019-02-14T00:49:21.084Z,79.00
2019-02-14T00:50:15.588Z,79.19
2019-02-14T00:50:16.161Z,79.19
2019-02-14T00:50:16.765Z,78.91
2019-02-14T00:50:17.367Z,79.19
2019-02-14T00:50:17.962Z,79.19
2019-02-14T00:50:18.561Z,79.19
2019-02-14T00:50:19.159Z,79.10
2019-02-14T00:50:19.760Z,79.19
2019-02-14T00:51:13.241Z,79.28
2019-02-14T00:51:13.814Z,79.19
2019-02-14T00:51:14.413Z,79.28
2019-02-14T00:51:15.014Z,79.19
2019-02-14T00:51:15.621Z,79.19
2019-02-14T00:51:16.213Z,79.10
2019-02-14T00:51:16.813Z,79.10
2019-02-14T00:51:17.412Z,79.28
2019-02-14T00:52:10.893Z,79.28
2019-02-14T00:52:11.470Z,79.38
2019-02-14T00:52:12.066Z,79.28
2019-02-14T00:52:12.664Z,79.38
2019-02-14T00:52:13.263Z,79.28
2019-02-14T00:52:13.864Z,79.57
2019-02-14T00:52:14.464Z,79.28
2019-02-14T00:52:15.063Z,79.28
2019-02-14T00:53:08.545Z,79.38
2019-02-14T00:53:09.118Z,79.10
2019-02-14T00:53:09.719Z,79.38
2019-02-14T00:53:10.315Z,79.28
2019-02-14T00:53:10.914Z,79.38
2019-02-14T00:53:11.515Z,79.19
2019-02-14T00:53:12.114Z,79.38
2019-02-14T00:53:12.714Z,79.10
2019-02-14T00:54:06.706Z,79.19
2019-02-14T00:54:07.283Z,79.38
2019-02-14T00:54:07.882Z,79.95
2019-02-14T00:54:08.479Z,79.95
2019-02-14T00:54:09.080Z,79.85
2019-02-14T00:54:09.677Z,80.04
2019-02-14T00:54:10.280Z,79.76
2019-02-14T00:55:04.768Z,79.57
2019-02-14T00:55:05.340Z,79.66
2019-02-14T00:55:05.942Z,79.66
2019-02-14T00:55:06.539Z,79.66
2019-02-14T00:55:07.140Z,79.66
2019-02-14T00:55:07.739Z,79.66
2019-02-14T00:55:08.342Z,79.57
2019-02-14T00:55:08.941Z,79.66
2019-02-14T00:56:03.443Z,80.43
2019-02-14T00:56:04.016Z,80.43
2019-02-14T00:56:04.615Z,80.24
2019-02-14T00:56:05.228Z,80.14
2019-02-14T00:56:05.817Z,80.43
2019-02-14T00:56:06.418Z,80.24
2019-02-14T00:56:07.017Z,80.24
2019-02-14T00:56:07.615Z,80.43
2019-02-14T00:57:02.126Z,80.24
2019-02-14T00:57:02.692Z,80.14
2019-02-14T00:57:03.292Z,80.52
2019-02-14T00:57:03.891Z,80.33
2019-02-14T00:57:04.491Z,80.24
2019-02-14T00:57:05.091Z,80.24
2019-02-14T00:57:05.693Z,80.24
2019-02-14T00:57:06.292Z,80.24
2019-02-14T00:57:59.772Z,80.71
2019-02-14T00:58:00.346Z,80.80
2019-02-14T00:58:00.945Z,80.71
2019-02-14T00:58:01.544Z,80.90
2019-02-14T00:58:02.147Z,80.71
2019-02-14T00:58:02.746Z,80.90
2019-02-14T00:58:03.345Z,80.80
2019-02-14T00:58:03.945Z,80.71
2019-02-14T00:58:58.449Z,81.27
2019-02-14T00:58:59.019Z,81.75
2019-02-14T00:58:59.620Z,81.37
2019-02-14T00:59:00.219Z,81.37
2019-02-14T00:59:00.823Z,81.66
2019-02-14T00:59:01.419Z,81.66
2019-02-14T00:59:02.020Z,81.75
2019-02-14T00:59:02.619Z,81.75
2019-02-14T00:59:57.125Z,81.37
2019-02-14T00:59:57.696Z,81.27
2019-02-14T00:59:58.294Z,81.18
2019-02-14T00:59:58.896Z,81.37
2019-02-14T00:59:59.495Z,81.27
2019-02-14T01:00:00.160Z,81.37
2019-02-14T01:00:00.697Z,81.27
2019-02-14T01:00:01.295Z,82.23
2019-02-14T01:00:55.803Z,82.04
2019-02-14T01:00:56.374Z,82.04
2019-02-14T01:00:56.972Z,82.04
2019-02-14T01:00:57.572Z,81.94
2019-02-14T01:00:58.170Z,82.04
2019-02-14T01:00:58.775Z,81.75
2019-02-14T01:00:59.370Z,81.94
2019-02-14T01:00:59.981Z,81.94
2019-02-14T01:01:54.473Z,81.56
2019-02-14T01:01:55.046Z,82.04
2019-02-14T01:01:55.646Z,82.13
2019-02-14T01:01:56.245Z,81.85
2019-02-14T01:01:56.845Z,81.85
2019-02-14T01:01:57.445Z,81.94
2019-02-14T01:01:58.045Z,82.04
2019-02-14T01:01:58.653Z,82.04
2019-02-14T01:02:53.151Z,82.23
2019-02-14T01:02:53.722Z,82.23
2019-02-14T01:02:54.322Z,82.23
2019-02-14T01:02:54.923Z,82.23
2019-02-14T01:02:55.522Z,82.32
2019-02-14T01:02:56.124Z,82.42
2019-02-14T01:02:56.722Z,82.42
2019-02-14T01:02:57.324Z,82.13
2019-02-14T01:03:50.805Z,82.51
2019-02-14T01:03:51.381Z,82.98
2019-02-14T01:03:51.976Z,82.42
2019-02-14T01:03:52.576Z,82.51
2019-02-14T01:03:53.176Z,82.32
2019-02-14T01:03:53.777Z,83.17
2019-02-14T01:03:54.374Z,83.31
2019-02-14T01:03:54.975Z,82.42
2019-02-14T01:04:49.477Z,82.89
2019-02-14T01:04:50.058Z,82.89
2019-02-14T01:04:50.649Z,82.89
2019-02-14T01:04:51.255Z,82.89
2019-02-14T01:04:51.848Z,82.98
2019-02-14T01:04:52.449Z,82.70
2019-02-14T01:04:53.047Z,83.17
2019-02-14T01:04:53.648Z,82.98
2019-02-14T01:05:47.129Z,83.65
2019-02-14T01:05:47.704Z,83.65
2019-02-14T01:05:48.304Z,83.74
2019-02-14T01:05:48.903Z,84.12
2019-02-14T01:05:49.503Z,84.22
2019-02-14T01:05:50.101Z,84.12
2019-02-14T01:05:50.703Z,84.31
2019-02-14T01:05:51.302Z,84.03
2019-02-14T01:06:57.479Z,84.78
2019-02-14T01:06:58.052Z,84.78
2019-02-14T01:06:58.655Z,84.59
2019-02-14T01:06:59.253Z,84.78
2019-02-14T01:06:59.854Z,84.78
2019-02-14T01:07:00.452Z,84.78
2019-02-14T01:07:01.052Z,84.78
2019-02-14T01:07:01.651Z,84.78
2019-02-14T01:07:55.140Z,84.88
2019-02-14T01:07:55.705Z,84.78
2019-02-14T01:07:56.306Z,84.78
2019-02-14T01:07:56.903Z,84.98
2019-02-14T01:07:57.503Z,84.88
2019-02-14T01:07:58.103Z,84.50
2019-02-14T01:07:58.706Z,84.88
2019-02-14T01:07:59.302Z,84.88
2019-02-14T01:08:52.783Z,84.78
2019-02-14T01:08:53.356Z,84.78
2019-02-14T01:08:53.955Z,85.17
2019-02-14T01:08:54.555Z,84.59
2019-02-14T01:08:55.156Z,85.17
2019-02-14T01:08:55.755Z,84.78
2019-02-14T01:08:56.357Z,84.64
2019-02-14T01:08:56.954Z,85.21
2019-02-14T01:09:51.459Z,84.74
2019-02-14T01:09:52.032Z,84.83
2019-02-14T01:09:52.631Z,84.78
2019-02-14T01:09:53.231Z,84.78
2019-02-14T01:09:53.831Z,85.55
2019-02-14T01:09:54.429Z,84.92
2019-02-14T01:09:55.033Z,85.55
2019-02-14T01:09:55.630Z,84.92
2019-02-14T01:10:50.134Z,86.16
2019-02-14T01:10:50.707Z,86.16
2019-02-14T01:10:51.308Z,86.25
2019-02-14T01:10:51.906Z,86.07
2019-02-14T01:10:52.505Z,86.16
2019-02-14T01:10:53.105Z,86.16
2019-02-14T01:10:53.705Z,86.16
2019-02-14T01:10:54.303Z,86.25
2019-02-14T01:11:48.810Z,87.25
2019-02-14T01:11:49.381Z,87.20
2019-02-14T01:11:49.981Z,87.39
2019-02-14T01:11:50.581Z,87.39
2019-02-14T01:11:51.180Z,87.39
2019-02-14T01:11:51.780Z,87.20
2019-02-14T01:11:52.381Z,87.30
2019-02-14T01:11:52.986Z,87.30
2019-02-14T01:12:47.484Z,86.72
2019-02-14T01:12:48.058Z,86.91
2019-02-14T01:12:48.657Z,86.72
2019-02-14T01:12:49.258Z,86.82
2019-02-14T01:12:49.857Z,87.01
2019-02-14T01:12:50.458Z,86.91
2019-02-14T01:12:51.059Z,87.01
2019-02-14T01:12:51.655Z,86.82
2019-02-14T01:13:45.138Z,87.11
2019-02-14T01:13:45.711Z,87.11
2019-02-14T01:13:46.310Z,87.11
2019-02-14T01:13:46.910Z,87.58
2019-02-14T01:13:47.510Z,87.77
2019-02-14T01:13:48.113Z,87.39
2019-02-14T01:13:48.710Z,87.58
2019-02-14T01:13:49.317Z,87.58
2019-02-14T01:14:43.812Z,88.34
2019-02-14T01:14:44.385Z,88.34
2019-02-14T01:14:44.984Z,88.43
2019-02-14T01:14:45.583Z,88.34
2019-02-14T01:14:46.183Z,88.15
2019-02-14T01:14:46.784Z,88.43
2019-02-14T01:14:47.384Z,88.15
2019-02-14T01:14:47.983Z,88.24
2019-02-14T01:15:42.488Z,88.81
2019-02-14T01:15:43.061Z,88.81
2019-02-14T01:15:43.660Z,88.72
2019-02-14T01:15:44.262Z,88.53
2019-02-14T01:15:44.861Z,88.91
2019-02-14T01:15:45.461Z,88.81
2019-02-14T01:15:46.060Z,88.91
2019-02-14T01:15:46.662Z,89.00
2019-02-14T01:16:40.142Z,88.91
2019-02-14T01:16:40.715Z,89.58
2019-02-14T01:16:41.314Z,89.67
2019-02-14T01:16:41.913Z,89.00
2019-02-14T01:16:42.512Z,89.00
2019-02-14T01:16:43.119Z,88.81
2019-02-14T01:16:43.719Z,89.00
2019-02-14T01:16:44.311Z,89.76
2019-02-14T01:17:38.816Z,89.76
2019-02-14T01:17:39.389Z,89.76
2019-02-14T01:17:39.988Z,89.76
2019-02-14T01:17:40.587Z,89.39
2019-02-14T01:17:41.188Z,89.39
2019-02-14T01:17:41.787Z,89.76
2019-02-14T01:17:42.388Z,89.76
2019-02-14T01:17:42.988Z,89.76
2019-02-14T01:18:36.467Z,90.05
2019-02-14T01:18:37.043Z,90.24
2019-02-14T01:18:37.640Z,90.24
2019-02-14T01:18:38.240Z,90.05
2019-02-14T01:18:38.840Z,89.95
2019-02-14T01:18:39.442Z,89.95
2019-02-14T01:18:40.042Z,90.05
2019-02-14T01:18:40.643Z,90.05
2019-02-14T01:19:35.142Z,90.05
2019-02-14T01:19:35.715Z,90.14
2019-02-14T01:19:36.313Z,90.05
2019-02-14T01:19:36.914Z,90.14
2019-02-14T01:19:37.514Z,89.95
2019-02-14T01:19:38.114Z,90.05
2019-02-14T01:19:38.712Z,90.05
2019-02-14T01:19:39.312Z,90.05
2019-02-14T01:20:32.795Z,90.81
2019-02-14T01:20:33.423Z,90.52
2019-02-14T01:20:33.968Z,90.81
2019-02-14T01:20:34.567Z,90.90
2019-02-14T01:20:35.168Z,90.81
2019-02-14T01:20:35.767Z,90.52
2019-02-14T01:20:36.366Z,90.62
2019-02-14T01:20:36.967Z,90.71
2019-02-14T01:21:30.447Z,90.62
2019-02-14T01:21:31.020Z,90.81
2019-02-14T01:21:31.620Z,90.81
2019-02-14T01:21:32.220Z,90.62
2019-02-14T01:21:32.819Z,90.81
2019-02-14T01:21:33.420Z,90.81
2019-02-14T01:21:34.019Z,90.81
2019-02-14T01:21:34.620Z,90.71
2019-02-14T01:22:29.123Z,91.38
2019-02-14T01:22:29.694Z,91.38
2019-02-14T01:22:30.295Z,91.38
2019-02-14T01:22:30.894Z,91.09
2019-02-14T01:22:31.495Z,91.28
2019-02-14T01:22:32.095Z,91.09
2019-02-14T01:22:32.694Z,91.09
2019-02-14T01:22:33.293Z,91.19
2019-02-14T01:23:26.775Z,92.04
2019-02-14T01:23:27.349Z,92.04
2019-02-14T01:23:27.947Z,91.75
2019-02-14T01:23:28.546Z,91.28
2019-02-14T01:23:29.148Z,92.04
2019-02-14T01:23:29.747Z,92.04
2019-02-14T01:23:30.347Z,92.14
2019-02-14T01:23:30.948Z,91.28
2019-02-14T01:24:24.428Z,91.66
2019-02-14T01:24:24.998Z,91.47
2019-02-14T01:24:25.600Z,91.28
2019-02-14T01:24:26.198Z,91.28
2019-02-14T01:24:26.799Z,91.38
2019-02-14T01:24:27.399Z,91.28
2019-02-14T01:24:27.999Z,91.28
2019-02-14T01:24:28.602Z,91.66
2019-02-14T01:25:22.078Z,92.14
2019-02-14T01:25:22.651Z,92.14
2019-02-14T01:25:23.251Z,92.23
2019-02-14T01:25:23.858Z,92.14
2019-02-14T01:25:24.448Z,92.71
2019-02-14T01:25:25.049Z,92.23
2019-02-14T01:25:25.649Z,92.52
2019-02-14T01:25:26.250Z,92.52
2019-02-14T01:26:20.755Z,91.94
2019-02-14T01:26:21.350Z,91.94
2019-02-14T01:26:21.925Z,92.33
2019-02-14T01:26:22.524Z,91.94
2019-02-14T01:26:23.125Z,91.94
2019-02-14T01:26:23.731Z,92.23
2019-02-14T01:26:24.323Z,91.94
2019-02-14T01:26:24.926Z,91.94
2019-02-14T01:27:19.430Z,92.90
2019-02-14T01:27:20.002Z,92.99
2019-02-14T01:27:20.603Z,92.99
2019-02-14T01:27:21.204Z,92.99
2019-02-14T01:27:21.812Z,92.42
2019-02-14T01:27:22.399Z,92.90
2019-02-14T01:27:23.001Z,92.42
2019-02-14T01:27:23.600Z,92.52
2019-02-14T01:28:17.082Z,92.80
2019-02-14T01:28:17.654Z,92.80
2019-02-14T01:28:18.253Z,92.71
2019-02-14T01:28:18.852Z,92.52
2019-02-14T01:28:19.453Z,92.80
2019-02-14T01:28:20.054Z,92.90
2019-02-14T01:28:20.653Z,92.61
2019-02-14T01:28:21.262Z,92.61
2019-02-14T01:29:15.756Z,93.18
2019-02-14T01:29:16.328Z,92.90
2019-02-14T01:29:16.930Z,92.90
2019-02-14T01:29:17.528Z,93.18
2019-02-14T01:29:18.127Z,92.99
2019-02-14T01:29:18.727Z,92.90
2019-02-14T01:29:19.328Z,93.08
2019-02-14T01:29:19.929Z,92.90
2019-02-14T01:30:13.409Z,92.80
2019-02-14T01:30:13.982Z,92.99
2019-02-14T01:30:14.581Z,93.18
2019-02-14T01:30:15.182Z,92.90
2019-02-14T01:30:15.779Z,93.18
2019-02-14T01:30:16.380Z,92.80
2019-02-14T01:30:16.981Z,93.18
2019-02-14T01:30:17.581Z,93.08
2019-02-14T01:31:12.083Z,93.37
2019-02-14T01:31:12.657Z,93.37
2019-02-14T01:31:13.255Z,93.37
2019-02-14T01:31:13.855Z,93.46
2019-02-14T01:31:14.455Z,93.37
2019-02-14T01:31:15.057Z,93.27
2019-02-14T01:31:15.659Z,93.18
2019-02-14T01:31:16.255Z,93.27
2019-02-14T01:32:10.763Z,93.56
2019-02-14T01:32:11.332Z,93.75
2019-02-14T01:32:11.932Z,93.56
2019-02-14T01:32:12.532Z,93.65
2019-02-14T01:32:13.131Z,93.65
2019-02-14T01:32:13.731Z,93.75
2019-02-14T01:32:14.331Z,93.56
2019-02-14T01:32:14.931Z,93.56
2019-02-14T01:33:09.435Z,94.42
2019-02-14T01:33:10.013Z,94.51
2019-02-14T01:33:10.607Z,94.42
2019-02-14T01:33:11.207Z,94.32
2019-02-14T01:33:11.807Z,94.51
2019-02-14T01:33:12.407Z,94.03
2019-02-14T01:33:13.007Z,94.42
2019-02-14T01:33:13.606Z,93.94
2019-02-14T01:34:08.115Z,95.36
2019-02-14T01:34:08.683Z,94.60
2019-02-14T01:34:09.285Z,95.36
2019-02-14T01:34:09.884Z,94.79
2019-02-14T01:34:10.482Z,94.79
2019-02-14T01:34:11.085Z,95.17
2019-02-14T01:34:11.682Z,95.27
2019-02-14T01:34:12.282Z,95.46
2019-02-14T01:35:05.769Z,95.46
2019-02-14T01:35:06.335Z,95.07
2019-02-14T01:35:06.951Z,94.98
2019-02-14T01:35:07.535Z,95.17
2019-02-14T01:35:08.136Z,95.17
2019-02-14T01:35:08.736Z,95.17
2019-02-14T01:35:09.334Z,95.46
2019-02-14T01:35:09.935Z,95.17
2019-02-14T01:36:03.418Z,95.07
2019-02-14T01:36:03.988Z,95.36
2019-02-14T01:36:04.586Z,95.17
2019-02-14T01:36:05.187Z,95.46
2019-02-14T01:36:05.789Z,94.79
2019-02-14T01:36:06.395Z,94.89
2019-02-14T01:36:06.989Z,95.17
2019-02-14T01:36:07.586Z,94.98
2019-02-14T01:37:02.090Z,95.07
2019-02-14T01:37:02.670Z,95.17
2019-02-14T01:37:03.263Z,95.17
2019-02-14T01:37:03.863Z,95.07
2019-02-14T01:37:04.463Z,95.17
2019-02-14T01:37:05.062Z,95.07
2019-02-14T01:37:05.666Z,95.36
2019-02-14T01:37:06.263Z,95.17
2019-02-14T01:38:00.769Z,95.46
2019-02-14T01:38:01.338Z,95.46
2019-02-14T01:38:01.938Z,95.55
2019-02-14T01:38:02.538Z,95.55
2019-02-14T01:38:03.141Z,95.55
2019-02-14T01:38:03.738Z,95.07
2019-02-14T01:38:04.337Z,95.46
2019-02-14T01:38:04.938Z,95.55
2019-02-14T01:38:59.445Z,95.93
2019-02-14T01:39:00.013Z,96.12
2019-02-14T01:39:00.613Z,96.03
2019-02-14T01:39:01.214Z,95.84
2019-02-14T01:39:01.814Z,95.93
2019-02-14T01:39:02.412Z,96.03
2019-02-14T01:39:03.016Z,96.12
2019-02-14T01:39:03.612Z,95.93
2019-02-14T01:39:57.095Z,96.03
2019-02-14T01:39:57.670Z,96.03
2019-02-14T01:39:58.265Z,95.74
2019-02-14T01:39:58.867Z,96.03
2019-02-14T01:39:59.468Z,95.74
2019-02-14T01:40:00.065Z,95.84
2019-02-14T01:40:00.707Z,95.84
2019-02-14T01:40:01.265Z,95.74
2019-02-14T01:40:55.769Z,96.31
2019-02-14T01:40:56.341Z,96.41
2019-02-14T01:40:56.940Z,96.41
2019-02-14T01:40:57.541Z,96.22
2019-02-14T01:40:58.144Z,96.22
2019-02-14T01:40:58.740Z,96.31
2019-02-14T01:40:59.342Z,96.22
2019-02-14T01:40:59.941Z,95.93
2019-02-14T01:41:53.426Z,96.31
2019-02-14T01:41:53.997Z,95.93
2019-02-14T01:41:54.593Z,96.31
2019-02-14T01:41:55.195Z,95.93
2019-02-14T01:41:55.792Z,95.93
2019-02-14T01:41:56.392Z,96.31
2019-02-14T01:41:56.994Z,96.41
2019-02-14T01:41:57.598Z,96.41
2019-02-14T01:42:51.073Z,95.93
2019-02-14T01:42:51.646Z,95.84
2019-02-14T01:42:52.246Z,95.93
2019-02-14T01:42:52.845Z,95.84
2019-02-14T01:42:53.445Z,95.93
2019-02-14T01:42:54.044Z,95.74
2019-02-14T01:42:54.646Z,95.84
2019-02-14T01:42:55.245Z,95.84
2019-02-14T01:43:48.724Z,96.03
2019-02-14T01:43:49.299Z,96.31
2019-02-14T01:43:49.900Z,96.03
2019-02-14T01:43:50.498Z,96.03
2019-02-14T01:43:51.097Z,95.65
2019-02-14T01:43:51.699Z,95.84
2019-02-14T01:43:52.296Z,95.74
2019-02-14T01:43:52.896Z,96.03
2019-02-14T01:44:46.377Z,95.84
2019-02-14T01:44:46.952Z,95.74
2019-02-14T01:44:47.549Z,95.84
2019-02-14T01:44:48.162Z,95.84
2019-02-14T01:44:48.749Z,95.65
2019-02-14T01:44:49.349Z,95.65
2019-02-14T01:44:49.951Z,95.65
2019-02-14T01:44:50.550Z,95.84
2019-02-14T01:45:45.051Z,95.84
2019-02-14T01:45:45.623Z,95.93
2019-02-14T01:45:46.224Z,95.74
2019-02-14T01:45:46.825Z,95.74
2019-02-14T01:45:47.422Z,95.74
2019-02-14T01:45:48.022Z,95.74
2019-02-14T01:45:48.622Z,96.03
2019-02-14T01:45:49.222Z,95.84
2019-02-14T01:46:43.727Z,95.74
2019-02-14T01:46:44.300Z,95.84
2019-02-14T01:46:44.899Z,95.93
2019-02-14T01:46:45.500Z,95.74
2019-02-14T01:46:46.100Z,96.03
2019-02-14T01:46:46.699Z,96.12
2019-02-14T01:46:47.299Z,95.74
2019-02-14T01:46:47.903Z,95.93
2019-02-14T01:47:42.403Z,95.84
2019-02-14T01:47:42.978Z,95.84
2019-02-14T01:47:43.576Z,95.93
2019-02-14T01:47:44.176Z,95.84
2019-02-14T01:47:44.774Z,96.31
2019-02-14T01:47:45.374Z,96.03
2019-02-14T01:47:45.975Z,96.41
2019-02-14T01:47:46.575Z,96.22
2019-02-14T01:48:41.078Z,96.59
2019-02-14T01:48:41.653Z,96.59
2019-02-14T01:48:42.250Z,96.59
2019-02-14T01:48:42.851Z,96.59
2019-02-14T01:48:43.454Z,96.50
2019-02-14T01:48:44.049Z,96.59
2019-02-14T01:48:44.649Z,96.59
2019-02-14T01:48:45.250Z,96.12
2019-02-14T01:49:39.756Z,96.59
2019-02-14T01:49:40.326Z,96.59
2019-02-14T01:49:40.929Z,96.31
2019-02-14T01:49:41.527Z,96.69
2019-02-14T01:49:42.129Z,96.59
2019-02-14T01:49:42.726Z,96.59
2019-02-14T01:49:43.327Z,96.88
2019-02-14T01:49:43.926Z,96.31
2019-02-14T01:50:38.429Z,96.97
2019-02-14T01:50:39.002Z,96.97
2019-02-14T01:50:39.602Z,96.97
2019-02-14T01:50:40.202Z,96.97
2019-02-14T01:50:40.802Z,96.78
2019-02-14T01:50:41.401Z,97.07
2019-02-14T01:50:42.001Z,96.78
2019-02-14T01:50:42.602Z,96.97
2019-02-14T01:51:37.106Z,96.78
2019-02-14T01:51:37.679Z,96.88
2019-02-14T01:51:38.277Z,96.88
2019-02-14T01:51:38.879Z,96.88
2019-02-14T01:51:39.478Z,96.88
2019-02-14T01:51:40.077Z,96.88
2019-02-14T01:51:40.677Z,96.97
2019-02-14T01:51:41.276Z,96.78
2019-02-14T01:52:35.782Z,96.88
2019-02-14T01:52:36.355Z,96.59
2019-02-14T01:52:36.954Z,96.59
2019-02-14T01:52:37.556Z,96.69
2019-02-14T01:52:38.154Z,96.69
2019-02-14T01:52:38.753Z,96.59
2019-02-14T01:52:39.353Z,96.88
2019-02-14T01:52:39.956Z,96.59
2019-02-14T01:53:34.458Z,96.78
2019-02-14T01:53:35.030Z,96.69
2019-02-14T01:53:35.629Z,96.78
2019-02-14T01:53:36.230Z,97.45
2019-02-14T01:53:36.843Z,97.26
2019-02-14T01:53:37.432Z,97.17
2019-02-14T01:53:38.077Z,97.45
2019-02-14T01:53:38.629Z,97.26
2019-02-14T01:54:33.137Z,97.36
2019-02-14T01:54:33.708Z,97.26
2019-02-14T01:54:34.304Z,97.36
2019-02-14T01:54:34.905Z,97.36
2019-02-14T01:54:35.504Z,97.36
2019-02-14T01:54:36.105Z,97.36
2019-02-14T01:54:36.705Z,97.36
2019-02-14T01:54:37.305Z,97.26
2019-02-14T01:55:32.509Z,97.45
2019-02-14T01:55:32.575Z,97.45
2019-02-14T01:55:32.598Z,97.36
2019-02-14T01:55:32.662Z,97.64
2019-02-14T01:55:33.179Z,97.36
2019-02-14T01:55:33.758Z,97.36
2019-02-14T01:55:34.359Z,97.36
2019-02-14T01:55:34.960Z,97.45
2019-02-14T01:56:29.460Z,97.36
2019-02-14T01:56:30.035Z,97.36
2019-02-14T01:56:30.634Z,97.17
2019-02-14T01:56:31.232Z,97.55
2019-02-14T01:56:31.832Z,97.36
2019-02-14T01:56:32.435Z,97.26
2019-02-14T01:56:33.034Z,97.36
2019-02-14T01:56:33.631Z,97.36
2019-02-14T01:57:28.135Z,97.45
2019-02-14T01:57:28.709Z,97.45
2019-02-14T01:57:29.308Z,97.45
2019-02-14T01:57:29.910Z,97.64
2019-02-14T01:57:30.508Z,97.55
2019-02-14T01:57:31.108Z,97.55
2019-02-14T01:57:31.708Z,97.45
2019-02-14T01:57:32.308Z,97.36
2019-02-14T01:58:26.816Z,97.92
2019-02-14T01:58:27.384Z,97.74
2019-02-14T01:58:27.984Z,97.92
2019-02-14T01:58:28.583Z,97.92
2019-02-14T01:58:29.186Z,97.92
2019-02-14T01:58:29.783Z,97.92
2019-02-14T01:58:30.383Z,97.74
2019-02-14T01:58:30.989Z,97.74
2019-02-14T01:59:24.465Z,97.74
2019-02-14T01:59:25.038Z,98.11
2019-02-14T01:59:25.639Z,97.92
2019-02-14T01:59:26.234Z,98.30
2019-02-14T01:59:26.837Z,98.40
2019-02-14T01:59:27.435Z,98.49
2019-02-14T01:59:28.033Z,98.30
2019-02-14T01:59:28.635Z,97.83
2019-02-14T02:00:23.141Z,97.92
2019-02-14T02:00:23.710Z,97.92
2019-02-14T02:00:24.311Z,98.59
2019-02-14T02:00:24.910Z,97.83
2019-02-14T02:00:25.510Z,97.83
2019-02-14T02:00:26.111Z,98.68
2019-02-14T02:00:26.714Z,97.92
2019-02-14T02:00:27.310Z,97.83
2019-02-14T02:01:20.792Z,97.74
2019-02-14T02:01:21.364Z,97.83
2019-02-14T02:01:21.964Z,98.68
2019-02-14T02:01:22.563Z,97.83
2019-02-14T02:01:23.164Z,97.92
2019-02-14T02:01:23.764Z,98.68
2019-02-14T02:01:24.363Z,97.83
2019-02-14T02:01:24.963Z,97.64
2019-02-14T02:02:18.448Z,98.40
2019-02-14T02:02:19.022Z,98.02
2019-02-14T02:02:19.631Z,98.02
2019-02-14T02:02:20.219Z,97.83
2019-02-14T02:02:20.818Z,98.02
2019-02-14T02:02:21.417Z,98.11